Amis Wisdom II — 3FGI2 — position and weather

sailwx.info

Track history (hours):
 
Tides and Currents Weather Stations Pressure Air Temp Water Temp Dewpoint Dewpoint Depression Visibility Wind Speed Wind Dir Waves Ship Positions

Amis Wisdom II

Last reported at 2015-Jun-13 06:33 UTC. Time now 2015-Jul-07 02:28 UTC.
Position N 23°40' E 117°59'.
Warning: this ship's position is 23 days out of date.

Length 200 m; draft 12.4 m.

Type: Cargo ship. MMSI: 357086000.

Date/timePositionNaut miles runAvg speedWind from/ knotsBaromVisibWave heightAir tempDewpointWater temp
2015-Jun-13 06:33N 23°40' E 117°59'2411.2
2015-Jun-13 04:24N 23°54' E 118°20'1011.5
2015-Jun-13 03:30N 23°60' E 118°29'2711.5
2015-Jun-13 01:08N 24°16' E 118°53'911.2
2015-Jun-13 00:20N 24°21' E 119°01'3010.5
2015-Jun-12 21:29N 24°42' E 119°25'1410.0
2015-Jun-12 20:07N 24°52' E 119°34'1910.0
2015-Jun-12 18:13N 25°07' E 119°48'  
2015-Jun-10 03:33N 33°31' E 128°58'1411.9
2015-Jun-10 02:24N 33°41' E 129°09'1411.8
2015-Jun-10 01:10N 33°52' E 129°21'711.3
2015-Jun-10 00:32N 33°57' E 129°26'  
Track history (hours):
 
Tides and Currents Weather Stations Pressure Air Temp Water Temp Dewpoint Dewpoint Depression Visibility Wind Speed Wind Dir Waves Ship Positions

Amis Wisdom II

Last reported at 2015-Jun-13 06:33 UTC. Time now 2015-Jul-07 02:28 UTC.
Position N 23°40' E 117°59'.
Warning: this ship's position is 23 days out of date.

Length 200 m; draft 12.4 m.

Type: Cargo ship. MMSI: 357086000.

Date/timePositionNaut miles runAvg speedWind from/ knotsBaromVisibWave heightAir tempDewpointWater temp
2015-Jun-13 06:33N 23°40' E 117°59'2411.2
2015-Jun-13 04:24N 23°54' E 118°20'1011.5
2015-Jun-13 03:30N 23°60' E 118°29'2711.5
2015-Jun-13 01:08N 24°16' E 118°53'911.2
2015-Jun-13 00:20N 24°21' E 119°01'3010.5
2015-Jun-12 21:29N 24°42' E 119°25'1410.0
2015-Jun-12 20:07N 24°52' E 119°34'1910.0
2015-Jun-12 18:13N 25°07' E 119°48'  
2015-Jun-10 03:33N 33°31' E 128°58'1411.9
2015-Jun-10 02:24N 33°41' E 129°09'1411.8
2015-Jun-10 01:10N 33°52' E 129°21'711.3
2015-Jun-10 00:32N 33°57' E 129°26'  

Dump ship's entire track history